Anandale, Louisiana
Current Conditions -  °F | °C
As of 6:53 AM on Wednesday 26 Nov 2014 (Local Time) from KAEX Reporting Station
Clear Clear  
Wind Chill: 37°   Ceiling: Unl
Heat Index: 43°   Visibility: 10mi
Dew Point: 38°   Wind: 10mph
Humidity: 82%   Direction: 220°SW
Pressure: 30.19"   Gusts: NA
Location:  31.2655°N, 92.4705°W
Report Text: KAEX 261253Z AUTO 22009KT 10SM CLR 06/03 A3019 RMK AO2 SLP228 T00610033
Loading
Personal Weather Stations






























Interactive Weather Map New forecast layout! Learn more

10-Day Weather Forecast

Advertisements
Track Severe Weather on mobile